Time;durP1;ratioP1;P1;durP2;ratioP2;P2;SDS_P1;SDS_P2;PMS_P1;PMS_P2;Temp;Humidity;BMP_temperature;BMP_pressure;BME280_temperature;BME280_humidity;BME280_pressure;Samples;Min_cycle;Max_cycle;Signal;HPM_P1;HPM_P2
2023/05/27 00:02:24;;;;;;;15.27;3.85;;;11.30;92.80;;;;;;6215067;23;20395;-72
2023/05/27 00:04:50;;;;;;;16.67;4.45;;;11.20;92.80;;;;;;6242329;23;20004;-72
2023/05/27 00:07:15;;;;;;;14.27;4.10;;;11.30;93.00;;;;;;6242239;23;20017;-72
2023/05/27 00:09:41;;;;;;;17.73;4.43;;;11.20;93.10;;;;;;6214710;23;20004;-73
2023/05/27 00:12:06;;;;;;;12.10;4.30;;;11.20;93.50;;;;;;6215320;23;20109;-72
2023/05/27 00:14:32;;;;;;;11.85;3.63;;;11.20;93.70;;;;;;6241749;23;20284;-72
2023/05/27 00:16:57;;;;;;;12.10;4.43;;;11.10;93.80;;;;;;6241990;23;20307;-73
2023/05/27 00:19:24;;;;;;;15.65;4.35;;;11.10;94.00;;;;;;6241650;23;20000;-72
2023/05/27 00:21:52;;;;;;;11.25;4.22;;;11.10;94.20;;;;;;6242392;23;20008;-72
2023/05/27 00:24:18;;;;;;;10.85;3.80;;;11.00;94.30;;;;;;6241150;23;20042;-72
2023/05/27 00:26:44;;;;;;;14.75;4.03;;;11.00;94.50;;;;;;6241995;23;20449;-72
2023/05/27 00:29:09;;;;;;;17.35;4.13;;;11.00;94.60;;;;;;6242031;23;20110;-73
2023/05/27 00:31:35;;;;;;;15.35;4.07;;;11.00;94.90;;;;;;6241953;23;20007;-73
2023/05/27 00:34:01;;;;;;;15.02;4.97;;;10.90;95.10;;;;;;6241894;23;20079;-72
2023/05/27 00:36:26;;;;;;;15.48;4.35;;;10.90;95.20;;;;;;6241948;23;19997;-72
2023/05/27 00:38:52;;;;;;;16.08;4.10;;;10.90;95.40;;;;;;6241550;23;20646;-73
2023/05/27 00:41:18;;;;;;;15.18;4.05;;;10.80;95.50;;;;;;6214856;23;20004;-72
2023/05/27 00:43:43;;;;;;;15.85;4.50;;;10.80;95.70;;;;;;6242118;23;20432;-72
2023/05/27 00:46:09;;;;;;;14.20;4.30;;;10.80;95.80;;;;;;6241825;23;20004;-72
2023/05/27 00:48:35;;;;;;;14.82;4.10;;;10.80;95.90;;;;;;6241683;23;20088;-73
2023/05/27 00:51:01;;;;;;;17.38;4.72;;;10.80;96.00;;;;;;6215131;23;20104;-72
2023/05/27 00:53:27;;;;;;;15.35;4.40;;;10.80;96.20;;;;;;6240771;23;19996;-72
2023/05/27 00:55:53;;;;;;;11.88;4.40;;;10.70;96.30;;;;;;6242165;23;20034;-72
2023/05/27 00:58:21;;;;;;;19.27;5.95;;;10.70;96.50;;;;;;6241489;23;20075;-72
2023/05/27 01:00:47;;;;;;;17.23;4.57;;;10.70;96.60;;;;;;6242003;23;19996;-72
2023/05/27 01:03:13;;;;;;;13.15;4.63;;;10.70;96.80;;;;;;6241522;23;20015;-72
2023/05/27 01:05:39;;;;;;;17.27;4.82;;;10.60;96.90;;;;;;6242033;23;20004;-73
2023/05/27 01:08:34;;;;;;;18.35;4.90;;;10.60;97.10;;;;;;6241140;23;20027;-72
2023/05/27 01:10:59;;;;;;;16.15;3.75;;;10.60;97.50;;;;;;6241632;23;20326;-72
2023/05/27 01:13:44;;;;;;;15.80;4.20;;;10.50;97.30;;;;;;6241464;23;20008;-73
2023/05/27 01:16:15;;;;;;;13.23;3.92;;;10.60;97.60;;;;;;6241743;23;20016;-72
2023/05/27 01:18:44;;;;;;;14.80;4.00;;;10.50;97.70;;;;;;6241985;23;19997;-72
2023/05/27 01:21:18;;;;;;;13.93;4.18;;;10.50;97.90;;;;;;6241618;23;20000;-72
2023/05/27 01:23:48;;;;;;;10.85;4.28;;;10.40;98.00;;;;;;6214353;23;20011;-72
2023/05/27 01:26:13;;;;;;;17.88;5.72;;;10.40;98.20;;;;;;6240894;23;20038;-72
2023/05/27 01:28:39;;;;;;;11.50;5.20;;;10.40;98.40;;;;;;6242861;23;20032;-72
2023/05/27 01:31:21;;;;;;;13.38;4.32;;;10.40;98.60;;;;;;6245053;23;20059;-72
2023/05/27 01:34:01;;;;;;;13.82;3.92;;;10.40;98.70;;;;;;6245096;23;20395;-72
2023/05/27 01:36:30;;;;;;;13.98;4.28;;;10.30;98.80;;;;;;6218179;23;20012;-72
2023/05/27 01:38:57;;;;;;;12.50;4.45;;;10.30;99.00;;;;;;6244676;23;19992;-72
2023/05/27 01:41:24;;;;;;;19.20;4.85;;;10.30;99.00;;;;;;6244838;23;20004;-72
2023/05/27 01:43:51;;;;;;;11.35;4.05;;;10.20;99.30;;;;;;6245021;23;20000;-72
2023/05/27 01:46:17;;;;;;;20.02;4.55;;;10.20;99.40;;;;;;6244726;23;19996;-72
2023/05/27 01:48:43;;;;;;;16.83;5.43;;;10.20;99.90;;;;;;6244992;23;20136;-72
2023/05/27 01:51:08;;;;;;;13.40;4.95;;;10.20;99.80;;;;;;6217504;23;20010;-72
2023/05/27 01:53:34;;;;;;;21.00;6.18;;;10.20;99.90;;;;;;6244374;23;20434;-72
2023/05/27 01:56:00;;;;;;;18.92;4.45;;;10.20;99.90;;;;;;6245068;23;20037;-72
2023/05/27 01:58:26;;;;;;;19.55;5.75;;;10.20;99.90;;;;;;6244761;23;19997;-73
2023/05/27 02:00:51;;;;;;;19.95;5.95;;;10.10;99.90;;;;;;6244921;23;19996;-73
2023/05/27 02:03:17;;;;;;;13.13;4.18;;;10.10;99.90;;;;;;6244467;23;20011;-73
2023/05/27 02:05:42;;;;;;;19.50;5.90;;;10.10;99.90;;;;;;6244376;23;20426;-73
2023/05/27 02:08:08;;;;;;;14.88;4.95;;;10.10;99.90;;;;;;6244688;23;20070;-73
2023/05/27 02:10:34;;;;;;;15.30;4.82;;;10.10;99.90;;;;;;6217832;23;20315;-73
2023/05/27 02:12:59;;;;;;;15.93;5.03;;;10.10;99.90;;;;;;6217768;23;20003;-73
2023/05/27 02:15:26;;;;;;;12.52;4.70;;;10.10;99.90;;;;;;6244491;23;19996;-73
2023/05/27 02:17:55;;;;;;;13.23;5.07;;;10.00;99.90;;;;;;6217837;23;20418;-73
2023/05/27 02:20:21;;;;;;;14.40;4.57;;;10.00;99.90;;;;;;6243777;23;20000;-73
2023/05/27 02:22:47;;;;;;;15.05;4.57;;;10.00;99.90;;;;;;6244778;23;20097;-73
2023/05/27 02:25:12;;;;;;;21.50;5.25;;;10.00;99.90;;;;;;6244371;23;20418;-73
2023/05/27 02:27:38;;;;;;;19.88;4.95;;;10.00;99.90;;;;;;6244146;23;20319;-71
2023/05/27 02:30:04;;;;;;;14.77;4.53;;;10.00;99.90;;;;;;6244593;23;19996;-72
2023/05/27 02:32:31;;;;;;;13.50;4.97;;;9.90;99.90;;;;;;6244426;23;20421;-71
2023/05/27 02:34:57;;;;;;;16.33;4.22;;;9.90;99.90;;;;;;6244109;23;20000;-71
2023/05/27 02:37:24;;;;;;;19.80;4.35;;;9.90;99.90;;;;;;6244314;23;20000;-71
2023/05/27 02:39:49;;;;;;;14.98;4.53;;;9.90;99.90;;;;;;6244232;23;20046;-71
2023/05/27 02:42:15;;;;;;;16.63;4.20;;;9.90;99.90;;;;;;6242402;23;20414;-72
2023/05/27 02:44:40;;;;;;;19.13;5.57;;;9.90;99.90;;;;;;6243095;23;20051;-72
2023/05/27 02:47:06;;;;;;;18.45;4.93;;;9.80;99.90;;;;;;6242820;23;20007;-71
2023/05/27 02:49:31;;;;;;;23.48;5.78;;;9.80;99.90;;;;;;6241925;23;20008;-71
2023/05/27 02:51:57;;;;;;;16.38;5.50;;;9.80;99.90;;;;;;6241194;23;20010;-71
2023/05/27 02:54:22;;;;;;;21.15;5.40;;;9.80;99.90;;;;;;6239876;23;20014;-72
2023/05/27 02:56:48;;;;;;;11.55;4.70;;;9.80;99.90;;;;;;6240531;23;19999;-71
2023/05/27 02:59:13;;;;;;;13.50;4.88;;;9.70;99.90;;;;;;6240345;23;20028;-71
2023/05/27 03:01:39;;;;;;;15.45;4.18;;;9.70;99.90;;;;;;6240509;23;20030;-71
2023/05/27 03:04:05;;;;;;;15.18;4.82;;;9.70;99.90;;;;;;6240362;23;20004;-71
2023/05/27 03:06:30;;;;;;;23.60;6.18;;;9.70;99.90;;;;;;6240691;23;20330;-72
2023/05/27 03:08:56;;;;;;;20.67;5.72;;;9.70;99.90;;;;;;6242635;23;20376;-72
2023/05/27 03:11:21;;;;;;;19.23;5.47;;;9.70;99.90;;;;;;6242347;23;20030;-72
2023/05/27 03:13:47;;;;;;;15.13;5.60;;;9.60;99.90;;;;;;6242672;23;20051;-71
2023/05/27 03:16:12;;;;;;;19.60;5.32;;;9.60;99.90;;;;;;6242492;23;20004;-72
2023/05/27 03:18:38;;;;;;;20.08;5.60;;;9.60;99.90;;;;;;6242104;23;20023;-72
2023/05/27 03:21:04;;;;;;;21.60;5.38;;;9.60;99.90;;;;;;6243019;23;20050;-72
2023/05/27 03:23:30;;;;;;;22.55;5.55;;;9.50;99.90;;;;;;6242348;23;20028;-71
2023/05/27 03:25:55;;;;;;;14.07;4.88;;;9.50;99.90;;;;;;6242345;23;20433;-72
2023/05/27 03:28:21;;;;;;;18.27;5.05;;;9.50;99.90;;;;;;6242213;23;20008;-72
2023/05/27 03:30:47;;;;;;;18.02;5.55;;;9.50;99.90;;;;;;6242514;23;20460;-72
2023/05/27 03:33:12;;;;;;;17.45;5.30;;;9.50;99.90;;;;;;6241438;23;20008;-71
2023/05/27 03:35:38;;;;;;;13.30;5.20;;;9.50;99.90;;;;;;6215429;23;20456;-72
2023/05/27 03:38:04;;;;;;;16.95;4.95;;;9.40;99.90;;;;;;6242547;23;20000;-72
2023/05/27 03:40:30;;;;;;;15.63;5.03;;;9.40;99.90;;;;;;6242049;23;20012;-71
2023/05/27 03:42:55;;;;;;;17.08;5.43;;;9.40;99.90;;;;;;6242408;23;20000;-71
2023/05/27 03:45:21;;;;;;;14.88;4.72;;;9.40;99.90;;;;;;6241806;23;20511;-71
2023/05/27 03:47:46;;;;;;;22.38;5.78;;;9.40;99.90;;;;;;6241917;23;20004;-71
2023/05/27 03:50:12;;;;;;;17.02;5.05;;;9.40;99.90;;;;;;6241752;23;20004;-71
2023/05/27 03:52:37;;;;;;;17.05;4.82;;;9.40;99.90;;;;;;6242283;23;19996;-71
2023/05/27 03:55:03;;;;;;;21.38;5.38;;;9.40;99.90;;;;;;6241909;23;20043;-72
2023/05/27 03:57:29;;;;;;;17.08;4.47;;;9.40;99.90;;;;;;6241792;23;20080;-71
2023/05/27 03:59:55;;;;;;;18.13;5.05;;;9.40;99.90;;;;;;6215194;23;20004;-71
2023/05/27 04:02:20;;;;;;;20.60;6.38;;;9.50;99.90;;;;;;6214375;23;20012;-72
2023/05/27 04:04:46;;;;;;;16.42;5.30;;;9.40;99.90;;;;;;6242321;23;20018;-71
2023/05/27 04:07:13;;;;;;;16.90;5.35;;;9.40;99.90;;;;;;6242016;23;20146;-71
2023/05/27 04:09:38;;;;;;;15.45;4.90;;;9.50;99.90;;;;;;6242161;23;20047;-71
2023/05/27 04:12:06;;;;;;;16.13;4.40;;;9.50;99.90;;;;;;6242112;23;20415;-74
2023/05/27 04:14:31;;;;;;;17.30;5.75;;;9.50;99.90;;;;;;6214701;23;20008;-74
2023/05/27 04:16:58;;;;;;;18.42;6.47;;;9.50;99.90;;;;;;6241674;23;20011;-74
2023/05/27 04:19:23;;;;;;;9.43;3.65;;;9.50;99.90;;;;;;6241769;23;19999;-72
2023/05/27 04:21:49;;;;;;;22.27;4.93;;;9.50;99.90;;;;;;6242242;23;20474;-72
2023/05/27 04:24:14;;;;;;;21.42;6.00;;;9.60;99.90;;;;;;6241122;23;20423;-72
2023/05/27 04:26:40;;;;;;;9.60;3.30;;;9.50;99.90;;;;;;6215004;23;20070;-72
2023/05/27 04:29:09;;;;;;;22.13;5.80;;;9.50;99.90;;;;;;6242062;23;20000;-72
2023/05/27 04:31:36;;;;;;;22.27;5.43;;;9.60;99.90;;;;;;6241325;23;19996;-71
2023/05/27 04:34:02;;;;;;;19.48;5.70;;;9.60;99.90;;;;;;6241634;23;20000;-72
2023/05/27 04:36:32;;;;;;;16.73;4.80;;;9.70;99.90;;;;;;6241966;23;20086;-72
2023/05/27 04:39:00;;;;;;;15.55;6.40;;;9.70;99.90;;;;;;6241884;23;20079;-72
2023/05/27 04:41:28;;;;;;;20.58;4.93;;;9.70;99.90;;;;;;6241677;23;20070;-71
2023/05/27 04:44:02;;;;;;;15.77;6.30;;;9.70;99.90;;;;;;6242140;23;20032;-72
2023/05/27 04:46:28;;;;;;;18.98;5.25;;;9.70;99.90;;;;;;6241001;23;20004;-72
2023/05/27 04:48:53;;;;;;;17.77;4.88;;;9.80;99.90;;;;;;6241825;23;20015;-72
2023/05/27 04:51:19;;;;;;;14.48;4.53;;;9.80;99.90;;;;;;6241561;23;20000;-73
2023/05/27 04:53:47;;;;;;;16.23;5.85;;;9.90;99.90;;;;;;6241679;23;20337;-72
2023/05/27 04:56:15;;;;;;;21.13;5.65;;;9.90;99.90;;;;;;6214487;23;20026;-72
2023/05/27 04:58:42;;;;;;;21.90;5.78;;;9.90;99.90;;;;;;6214926;23;20027;-73
2023/05/27 05:01:16;;;;;;;21.10;5.90;;;10.00;99.90;;;;;;6241332;23;20376;-73
2023/05/27 05:03:51;;;;;;;11.07;5.32;;;10.00;99.90;;;;;;6241618;23;20068;-72
2023/05/27 05:06:22;;;;;;;18.42;5.20;;;10.10;99.90;;;;;;6241504;23;20000;-73
2023/05/27 05:08:48;;;;;;;16.38;5.43;;;10.10;99.90;;;;;;6241907;23;20079;-71
2023/05/27 05:11:14;;;;;;;25.23;5.30;;;10.10;99.90;;;;;;6241445;23;20000;-72
2023/05/27 05:13:40;;;;;;;11.90;5.10;;;10.20;99.90;;;;;;6241554;23;20007;-72
2023/05/27 05:16:05;;;;;;;17.27;5.40;;;10.30;99.90;;;;;;6214014;23;20012;-72
2023/05/27 05:18:31;;;;;;;13.52;4.35;;;10.30;99.90;;;;;;6241303;23;20008;-72
2023/05/27 05:20:57;;;;;;;15.45;5.13;;;10.30;99.90;;;;;;6241706;23;20004;-72
2023/05/27 05:23:22;;;;;;;21.55;5.50;;;10.40;99.90;;;;;;6241277;23;20338;-72
2023/05/27 05:25:54;;;;;;;18.33;5.10;;;10.50;99.90;;;;;;6241402;23;20075;-72
2023/05/27 05:28:20;;;;;;;19.38;5.38;;;10.50;99.90;;;;;;6214140;23;20005;-72
2023/05/27 05:30:46;;;;;;;19.52;6.05;;;10.60;99.90;;;;;;6240550;23;20194;-72
2023/05/27 05:33:11;;;;;;;19.83;4.35;;;10.60;99.90;;;;;;6240349;23;20067;-72
2023/05/27 05:35:37;;;;;;;11.60;4.22;;;10.70;99.90;;;;;;6239255;23;20000;-72
2023/05/27 05:38:02;;;;;;;16.13;5.28;;;10.70;99.90;;;;;;6240031;23;20071;-72
2023/05/27 05:40:28;;;;;;;19.95;4.72;;;10.80;99.90;;;;;;6241510;23;20023;-72
2023/05/27 05:42:54;;;;;;;18.83;4.97;;;10.80;99.90;;;;;;6241567;23;20034;-71
2023/05/27 05:45:19;;;;;;;21.80;5.78;;;10.90;99.90;;;;;;6213650;23;20114;-72
2023/05/27 05:47:45;;;;;;;16.02;4.85;;;11.00;99.90;;;;;;6241252;23;20001;-72
2023/05/27 05:50:10;;;;;;;19.77;4.70;;;11.00;99.90;;;;;;6241083;23;20015;-72
2023/05/27 05:52:36;;;;;;;12.25;5.03;;;11.10;99.90;;;;;;6241469;23;19996;-72
2023/05/27 05:55:01;;;;;;;18.52;4.57;;;11.20;99.90;;;;;;6241159;23;20008;-72
2023/05/27 05:57:31;;;;;;;18.83;5.45;;;11.20;99.90;;;;;;6241095;23;20007;-72
2023/05/27 05:59:57;;;;;;;17.58;5.15;;;11.30;99.90;;;;;;6240849;23;20373;-72
2023/05/27 06:02:22;;;;;;;13.82;5.25;;;11.30;99.90;;;;;;6241214;23;20000;-71
2023/05/27 06:04:48;;;;;;;16.10;4.75;;;11.40;99.90;;;;;;6241303;23;19996;-72
2023/05/27 06:07:13;;;;;;;21.65;6.10;;;11.40;99.90;;;;;;6241158;23;20009;-72
2023/05/27 06:09:39;;;;;;;19.77;4.97;;;11.40;99.90;;;;;;6241506;23;19996;-72
2023/05/27 06:12:06;;;;;;;20.60;5.43;;;11.50;99.90;;;;;;6240743;23;20000;-72
2023/05/27 06:14:31;;;;;;;14.57;5.38;;;11.50;99.90;;;;;;6241094;23;20004;-72
2023/05/27 06:16:57;;;;;;;22.42;6.35;;;11.60;99.90;;;;;;6242979;23;20027;-72
2023/05/27 06:19:22;;;;;;;15.63;5.38;;;11.60;99.90;;;;;;6242923;23;20315;-72
2023/05/27 06:21:48;;;;;;;29.65;6.90;;;11.70;99.90;;;;;;6243664;23;20373;-72
2023/05/27 06:24:13;;;;;;;21.25;6.05;;;11.80;99.90;;;;;;6242974;23;20044;-72
2023/05/27 06:26:39;;;;;;;24.67;4.97;;;11.80;99.90;;;;;;6242580;23;20016;-72
2023/05/27 06:29:04;;;;;;;21.98;5.45;;;11.80;99.90;;;;;;6243105;23;20444;-72
2023/05/27 06:31:30;;;;;;;13.10;4.38;;;11.90;99.90;;;;;;6242963;23;20066;-72
2023/05/27 06:33:55;;;;;;;18.02;5.82;;;11.90;99.90;;;;;;6243147;23;20016;-72
2023/05/27 06:36:21;;;;;;;18.38;6.57;;;12.00;99.90;;;;;;6242637;23;20027;-72
2023/05/27 06:38:47;;;;;;;17.08;6.07;;;12.10;99.90;;;;;;6216246;23;20008;-72
2023/05/27 06:41:13;;;;;;;16.15;5.88;;;12.10;99.90;;;;;;6242159;23;20053;-72
2023/05/27 06:43:39;;;;;;;18.75;5.22;;;12.20;99.90;;;;;;6242880;23;20043;-72
2023/05/27 06:46:04;;;;;;;24.60;7.50;;;12.20;99.90;;;;;;6242916;23;20000;-72
2023/05/27 06:48:30;;;;;;;18.25;6.35;;;12.30;99.90;;;;;;6243438;23;20046;-71
2023/05/27 06:50:55;;;;;;;18.33;6.95;;;12.30;99.90;;;;;;6243752;23;20008;-72
2023/05/27 06:53:21;;;;;;;21.67;8.50;;;12.40;99.90;;;;;;6243252;23;20426;-72
2023/05/27 06:55:46;;;;;;;22.10;7.22;;;12.40;99.90;;;;;;6243248;23;19996;-72
2023/05/27 06:58:12;;;;;;;18.27;6.63;;;12.40;99.90;;;;;;6243090;23;20000;-72
2023/05/27 07:00:37;;;;;;;18.60;6.53;;;12.50;99.90;;;;;;6243613;23;20004;-72
2023/05/27 07:03:03;;;;;;;21.48;7.20;;;12.60;99.90;;;;;;6243298;23;20118;-72
2023/05/27 07:05:28;;;;;;;14.60;6.30;;;12.60;99.90;;;;;;6243266;23;20039;-72
2023/05/27 07:07:54;;;;;;;26.27;6.35;;;12.60;99.90;;;;;;6243657;23;20055;-72
2023/05/27 07:10:20;;;;;;;26.00;6.97;;;12.70;99.90;;;;;;6242693;23;20010;-73
2023/05/27 07:12:45;;;;;;;22.48;6.32;;;12.70;99.90;;;;;;6243425;23;20000;-72
2023/05/27 07:15:11;;;;;;;15.98;6.38;;;12.80;99.90;;;;;;6243164;23;20004;-72
2023/05/27 07:17:36;;;;;;;22.27;6.93;;;12.90;99.90;;;;;;6243311;23;20419;-73
2023/05/27 07:20:02;;;;;;;14.25;6.05;;;12.90;99.90;;;;;;6243329;23;19992;-72
2023/05/27 07:22:28;;;;;;;18.58;6.03;;;12.90;99.90;;;;;;6243028;23;20004;-73
2023/05/27 07:24:54;;;;;;;17.80;6.60;;;13.00;99.90;;;;;;6242754;23;20480;-73
2023/05/27 07:27:20;;;;;;;20.58;6.88;;;13.10;99.90;;;;;;6242156;23;20047;-73
2023/05/27 07:29:45;;;;;;;11.80;5.78;;;13.30;99.90;;;;;;6243253;23;20680;-73
2023/05/27 07:32:11;;;;;;;14.35;7.43;;;13.40;99.90;;;;;;6242799;23;20432;-71
2023/05/27 07:34:36;;;;;;;17.35;6.57;;;13.50;99.90;;;;;;6243734;23;20004;-73
2023/05/27 07:37:02;;;;;;;17.17;5.60;;;13.60;99.90;;;;;;6243993;23;20086;-73
2023/05/27 07:39:27;;;;;;;15.82;6.10;;;13.70;99.90;;;;;;6242379;23;20000;-73
2023/05/27 07:41:53;;;;;;;19.25;6.57;;;13.80;99.90;;;;;;6242991;23;19996;-73
2023/05/27 07:44:19;;;;;;;16.50;8.50;;;14.00;99.90;;;;;;6242385;23;20330;-73
2023/05/27 07:46:44;;;;;;;21.42;8.25;;;14.10;99.90;;;;;;6242682;23;20429;-73
2023/05/27 07:49:10;;;;;;;19.75;6.80;;;14.20;99.90;;;;;;6243240;23;20348;-72
2023/05/27 07:51:36;;;;;;;18.40;7.80;;;14.30;99.90;;;;;;6243299;23;20419;-74
2023/05/27 07:54:02;;;;;;;21.23;7.07;;;14.40;99.90;;;;;;6242960;23;20004;-73
2023/05/27 07:56:28;;;;;;;21.95;7.10;;;14.50;99.70;;;;;;6242343;23;20058;-73
2023/05/27 07:58:54;;;;;;;19.00;6.65;;;14.60;99.60;;;;;;6242735;23;19997;-73
2023/05/27 08:01:19;;;;;;;19.67;6.40;;;14.70;99.20;;;;;;6242106;23;19996;-73
2023/05/27 08:03:45;;;;;;;20.38;7.07;;;14.80;99.40;;;;;;6242156;23;20209;-73
2023/05/27 08:06:10;;;;;;;18.23;6.57;;;14.90;98.80;;;;;;6242374;23;20406;-73
2023/05/27 08:08:36;;;;;;;21.38;7.40;;;15.00;98.80;;;;;;6242307;23;20134;-73
2023/05/27 08:11:01;;;;;;;19.55;7.88;;;15.10;98.70;;;;;;6242625;23;20006;-72
2023/05/27 08:13:27;;;;;;;14.25;6.22;;;15.20;98.30;;;;;;6215161;23;20421;-73
2023/05/27 08:15:52;;;;;;;20.88;7.20;;;15.30;98.30;;;;;;6215879;23;20095;-72
2023/05/27 08:18:18;;;;;;;18.08;7.65;;;15.30;98.10;;;;;;6242062;23;20032;-72
2023/05/27 08:20:43;;;;;;;23.65;7.72;;;15.50;97.90;;;;;;6242553;23;20003;-72
2023/05/27 08:23:09;;;;;;;19.30;6.93;;;15.50;97.40;;;;;;6242148;23;20011;-73
2023/05/27 08:25:35;;;;;;;22.05;7.85;;;15.60;97.60;;;;;;6241956;23;20002;-72
2023/05/27 08:28:03;;;;;;;22.13;6.63;;;15.70;97.70;;;;;;6215107;23;20009;-73
2023/05/27 08:30:29;;;;;;;16.98;6.68;;;15.70;97.40;;;;;;6215040;23;20414;-73
2023/05/27 08:32:56;;;;;;;16.67;6.30;;;15.80;97.30;;;;;;6215692;23;20334;-73
2023/05/27 08:35:21;;;;;;;17.55;7.40;;;15.90;97.20;;;;;;6241955;23;20488;-73
2023/05/27 08:37:47;;;;;;;18.63;7.80;;;16.00;97.00;;;;;;6214976;23;20040;-72
2023/05/27 08:40:14;;;;;;;20.60;8.10;;;16.10;96.80;;;;;;6241410;23;20007;-73
2023/05/27 08:42:41;;;;;;;18.65;8.93;;;16.20;96.40;;;;;;6242232;23;20083;-72
2023/05/27 08:45:08;;;;;;;21.33;7.97;;;16.30;96.30;;;;;;6242038;23;20000;-75
2023/05/27 08:47:33;;;;;;;16.17;6.90;;;16.30;96.10;;;;;;6242003;23;20092;-75
2023/05/27 08:49:59;;;;;;;19.08;7.97;;;16.40;96.20;;;;;;6242168;23;20080;-74
2023/05/27 08:52:28;;;;;;;19.45;7.68;;;16.40;95.60;;;;;;6241335;23;20000;-72
2023/05/27 08:54:56;;;;;;;16.08;7.05;;;16.40;95.70;;;;;;6242154;23;20001;-73
2023/05/27 08:57:23;;;;;;;20.52;6.95;;;16.50;95.70;;;;;;6241693;23;20000;-73
2023/05/27 08:59:50;;;;;;;15.20;6.78;;;16.60;95.60;;;;;;6242212;23;20000;-73
2023/05/27 09:02:18;;;;;;;14.90;7.45;;;16.70;95.50;;;;;;6241423;23;20321;-72
2023/05/27 09:04:46;;;;;;;19.98;7.63;;;16.70;95.50;;;;;;6242054;23;20081;-73
2023/05/27 09:07:11;;;;;;;16.85;6.80;;;16.80;95.50;;;;;;6240629;23;20087;-73
2023/05/27 09:09:38;;;;;;;23.00;8.13;;;16.90;95.40;;;;;;6241926;23;20047;-72
2023/05/27 09:12:04;;;;;;;19.95;7.78;;;17.00;95.30;;;;;;6241048;23;20011;-73
2023/05/27 09:14:30;;;;;;;14.95;5.88;;;17.00;95.10;;;;;;6241716;23;20099;-72
2023/05/27 09:16:56;;;;;;;20.90;8.90;;;17.10;95.10;;;;;;6241911;23;20033;-73
2023/05/27 09:19:22;;;;;;;19.20;7.32;;;17.20;95.10;;;;;;6241703;23;20000;-72
2023/05/27 09:21:55;;;;;;;14.98;6.40;;;17.20;94.40;;;;;;6241043;23;20008;-73
2023/05/27 09:24:23;;;;;;;25.00;8.52;;;17.30;94.20;;;;;;6241433;23;20422;-73
2023/05/27 09:26:51;;;;;;;19.50;7.82;;;17.30;94.10;;;;;;6241269;23;20752;-73
2023/05/27 09:29:19;;;;;;;21.17;8.20;;;17.30;94.20;;;;;;6241491;23;20062;-73
2023/05/27 09:31:45;;;;;;;15.00;7.07;;;17.40;94.00;;;;;;6241790;23;20015;-73
2023/05/27 09:34:15;;;;;;;20.23;7.28;;;17.50;93.90;;;;;;6214522;23;20450;-73
2023/05/27 09:36:51;;;;;;;16.45;5.60;;;17.50;94.10;;;;;;6241132;23;20011;-73
2023/05/27 09:39:21;;;;;;;14.60;6.72;;;17.60;93.80;;;;;;6241448;23;20000;-73
2023/05/27 09:41:52;;;;;;;17.48;7.43;;;17.70;93.80;;;;;;6214809;23;20012;-73
2023/05/27 09:44:18;;;;;;;18.10;7.28;;;17.80;93.50;;;;;;6241297;23;20007;-73
2023/05/27 09:46:45;;;;;;;16.58;7.50;;;17.90;93.40;;;;;;6241495;23;20012;-72
2023/05/27 09:49:14;;;;;;;19.13;8.43;;;17.90;93.10;;;;;;6241575;23;19996;-73
2023/05/27 09:51:41;;;;;;;17.10;8.00;;;18.00;92.60;;;;;;6243025;23;20418;-74
2023/05/27 09:54:08;;;;;;;23.15;8.55;;;18.10;92.50;;;;;;6243233;23;20004;-73
2023/05/27 09:56:35;;;;;;;16.67;7.35;;;18.10;92.30;;;;;;6243490;23;19996;-72
2023/05/27 09:59:00;;;;;;;13.95;6.43;;;18.20;92.20;;;;;;6243594;23;20103;-73
2023/05/27 10:01:29;;;;;;;15.05;7.47;;;18.30;92.00;;;;;;6242884;23;20143;-73
2023/05/27 10:03:58;;;;;;;16.02;7.15;;;18.30;91.70;;;;;;6216783;23;20441;-73
2023/05/27 10:06:25;;;;;;;17.33;7.85;;;18.30;91.70;;;;;;6215665;23;20467;-73
2023/05/27 10:08:58;;;;;;;16.73;7.50;;;18.40;91.40;;;;;;6216939;23;20090;-73
2023/05/27 10:11:30;;;;;;;16.63;8.00;;;18.40;91.10;;;;;;6243287;23;20000;-73
2023/05/27 10:13:56;;;;;;;18.63;6.22;;;18.50;91.10;;;;;;6243674;23;20016;-72
2023/05/27 10:16:23;;;;;;;16.63;6.75;;;18.60;91.00;;;;;;6243218;23;20434;-73
2023/05/27 10:18:56;;;;;;;20.38;7.30;;;18.60;90.90;;;;;;6243182;23;19996;-73
2023/05/27 10:21:30;;;;;;;13.75;6.82;;;18.70;91.10;;;;;;6243370;23;19992;-73
2023/05/27 10:23:56;;;;;;;15.63;7.15;;;18.80;90.70;;;;;;6216881;23;20083;-72
2023/05/27 10:26:35;;;;;;;18.17;8.43;;;18.90;90.60;;;;;;6216163;23;20050;-73
2023/05/27 10:29:17;;;;;;;15.57;7.38;;;19.00;90.10;;;;;;6217451;23;20095;-73
2023/05/27 10:31:47;;;;;;;14.05;6.25;;;19.10;89.80;;;;;;6243152;23;20004;-73
2023/05/27 10:34:13;;;;;;;14.95;6.80;;;19.10;89.00;;;;;;6242481;23;20004;-73
2023/05/27 10:36:39;;;;;;;22.65;7.88;;;19.10;88.50;;;;;;6243671;23;20004;-73
2023/05/27 10:39:11;;;;;;;15.35;5.10;;;19.10;87.40;;;;;;6243103;23;20051;-72
2023/05/27 10:41:48;;;;;;;15.52;6.43;;;19.10;86.30;;;;;;6243223;23;20003;-72
2023/05/27 10:44:25;;;;;;;15.80;6.53;;;19.20;86.20;;;;;;6243003;23;20058;-73
2023/05/27 10:47:01;;;;;;;12.32;5.40;;;19.20;86.10;;;;;;6243246;23;20088;-73
2023/05/27 10:49:32;;;;;;;17.05;6.10;;;19.20;86.00;;;;;;6242464;23;20481;-73
2023/05/27 10:52:00;;;;;;;14.13;6.10;;;19.30;85.90;;;;;;6243636;23;20004;-71
2023/05/27 10:54:26;;;;;;;16.65;6.25;;;19.20;85.50;;;;;;6242882;23;20334;-71
2023/05/27 10:56:52;;;;;;;23.58;7.63;;;19.20;85.80;;;;;;6243075;23;19996;-71
2023/05/27 10:59:21;;;;;;;14.35;6.22;;;19.20;84.80;;;;;;6242112;23;20015;-72
2023/05/27 11:01:52;;;;;;;14.57;7.32;;;19.30;85.00;;;;;;6242452;23;20000;-72
2023/05/27 11:04:18;;;;;;;13.05;7.32;;;19.30;85.20;;;;;;6242491;23;20000;-72
2023/05/27 11:06:57;;;;;;;16.30;7.20;;;19.40;84.60;;;;;;6243605;23;20028;-72
2023/05/27 11:09:23;;;;;;;19.77;6.72;;;19.50;84.40;;;;;;6243789;23;20004;-73
2023/05/27 11:11:49;;;;;;;18.65;7.47;;;19.50;83.70;;;;;;6243688;23;20000;-73
2023/05/27 11:14:15;;;;;;;15.70;5.93;;;19.50;81.30;;;;;;6242858;23;20008;-73
2023/05/27 11:16:40;;;;;;;15.65;5.75;;;19.40;80.60;;;;;;6242796;23;20069;-73
2023/05/27 11:19:11;;;;;;;19.92;6.53;;;19.40;81.30;;;;;;6242992;23;20420;-73
2023/05/27 11:21:47;;;;;;;14.45;5.30;;;19.50;81.20;;;;;;6243228;23;20003;-73
2023/05/27 11:24:18;;;;;;;18.83;6.43;;;19.50;80.70;;;;;;6242885;23;20414;-74
2023/05/27 11:26:47;;;;;;;14.07;5.45;;;19.50;80.80;;;;;;6216083;23;20039;-73
2023/05/27 11:29:16;;;;;;;16.98;5.75;;;19.60;80.50;;;;;;6242790;23;20010;-73
2023/05/27 11:31:47;;;;;;;11.13;5.03;;;19.50;80.20;;;;;;6242647;23;20004;-73
2023/05/27 11:34:18;;;;;;;15.15;5.53;;;19.60;81.30;;;;;;6242656;23;20004;-73
2023/05/27 11:36:45;;;;;;;18.48;6.55;;;19.60;80.90;;;;;;6243015;23;20000;-73
2023/05/27 11:39:18;;;;;;;12.98;5.65;;;19.70;80.40;;;;;;6215943;23;20027;-74
2023/05/27 11:41:52;;;;;;;20.48;6.95;;;19.70;79.50;;;;;;6243174;23;20004;-73
2023/05/27 11:44:17;;;;;;;;;;;19.70;80.00;;;;;;6216195;23;20534;-73
2023/05/27 11:46:45;;;;;;;17.35;5.13;;;19.70;80.30;;;;;;6242294;23;19905;-73
2023/05/27 11:49:12;;;;;;;13.23;6.13;;;19.70;78.60;;;;;;6215754;23;20015;-73
2023/05/27 11:51:40;;;;;;;16.60;5.55;;;19.70;78.00;;;;;;6242876;23;20011;-73
2023/05/27 11:54:06;;;;;;;15.18;5.60;;;19.70;76.10;;;;;;6215981;23;20321;-73
2023/05/27 11:56:32;;;;;;;14.13;5.68;;;19.70;76.30;;;;;;6242543;23;20453;-72
2023/05/27 11:59:00;;;;;;;13.45;6.43;;;19.80;76.60;;;;;;6242960;23;20035;-73
2023/05/27 12:01:26;;;;;;;14.68;5.88;;;19.80;77.10;;;;;;6241548;23;20076;-73
2023/05/27 12:03:51;;;;;;;14.43;5.05;;;19.80;77.80;;;;;;6242917;23;20023;-71
2023/05/27 12:06:17;;;;;;;14.57;6.90;;;19.90;77.50;;;;;;6242270;23;20011;-72
2023/05/27 12:08:43;;;;;;;15.38;5.95;;;20.00;77.40;;;;;;6242678;23;20000;-72
2023/05/27 12:11:09;;;;;;;17.63;7.32;;;20.00;76.80;;;;;;6242205;23;20004;-73
2023/05/27 12:13:34;;;;;;;16.00;6.05;;;20.00;77.00;;;;;;6242113;23;20398;-73
2023/05/27 12:16:00;;;;;;;15.45;5.97;;;20.00;76.50;;;;;;6241912;23;20045;-72
2023/05/27 12:18:25;;;;;;;14.48;5.80;;;19.90;76.40;;;;;;6242220;23;20323;-72
2023/05/27 12:20:51;;;;;;;14.13;5.25;;;20.00;76.80;;;;;;6242132;23;19993;-73
2023/05/27 12:23:18;;;;;;;12.32;5.63;;;20.00;76.80;;;;;;6241914;23;20000;-72
2023/05/27 12:25:44;;;;;;;13.45;6.15;;;20.10;76.70;;;;;;6241897;23;20000;-73
2023/05/27 12:28:10;;;;;;;14.40;6.13;;;20.20;76.50;;;;;;6242118;23;20031;-72
2023/05/27 12:30:36;;;;;;;16.25;6.20;;;20.20;76.40;;;;;;6241523;23;20409;-72
2023/05/27 12:33:03;;;;;;;10.73;5.90;;;20.30;75.80;;;;;;6242243;23;20445;-73
2023/05/27 12:35:30;;;;;;;12.70;5.30;;;20.40;74.90;;;;;;6242091;23;20004;-73
2023/05/27 12:37:55;;;;;;;13.93;5.35;;;20.40;75.50;;;;;;6242445;23;20047;-73